Aérodrome :
LOGIN :

S'inscrire | Disclaimer

   EN    FR    IT 

 










Légende :    VFR   VFR Marginal   IFR   IFR Intensif   IFR Très Intensif
Visi : 
Plafond : 
>= 8 km
>= 3000ft
5 à 8 km
1000 à 3000 ft
1500m à 5 km
500 à 1000 ft
800 à 1500m
200 à 500 ft
< 800m
< 200 ft
Symboles :   Orages  Brouillard  Fortes neiges  Fortes précipitations  Vent > 20 kt
SIGMETs :   Divers  Orages  Givrage  Turbulence  Onde Orograph.  Cendres Volcan.







- Altitude de l'aérodrome : 312 ft
- Code IATA : SAW


LTFJ - Sabiha Gokcen

DERNIER METAR :
  • 151120Z 03021KT 9999 SCT030 25/16 Q1021 NOSIG RMK RWY24 02019KT

METARs EXPIRÉS :
  • 151050Z 03019G29KT 9999 SCT033 26/16 Q1021 NOSIG
  • 151020Z 03020KT 9999 BKN035 26/17 Q1022 NOSIG RMK RWY24 36018KT
  • 150950Z 02018KT 9999 BKN030 26/17 Q1022 NOSIG RMK RWY24 03018KT
  • 150920Z 03020KT 9999 SCT033 BKN100 24/16 Q1022 NOSIG RMK RWY24 02017KT
  • 150850Z 03014KT 360V060 9999 BKN030 BKN090 25/17 Q1022 NOSIG RMK RWY24 01015KT

TAF TAF LTFJ
Valide du 15 à 12h jusqu'au 16 à 12h UTC


151040Z 1512/1612 04017KT 9999 SCT035
TEMPO 1512/1515 03020G30KT -SHRA FEW020CB BKN030
BECMG 1516/1519 04007KT CAVOK
BECMG 1601/1604 SCT035
PROB40
TEMPO 1608/1612 -SHRA FEW020CB BKN030
Pas de NOTAMs connus pour ce terrain.



MET'MAP, la Météo Aéronautique d'un coup d'oeil ! - Copyright ORBIFLY Décembre 2007 - Disclaimer

ORBIFLY MET'MAP TEAM :

Programmation & Développement : Alexandra Zaïnal
Conception & Développement : Baudouin d'Aumeries
Co-Programmation & Développement : Marc-Olivier Méhu
Soutien technique & logistique : Manuel Goepfert

Contact : metmap@orbifly.com




SOURCES & CREDITS :

   NOAA